Time;durP1;ratioP1;P1;durP2;ratioP2;P2;SDS_P1;SDS_P2;PMS_P1;PMS_P2;Temp;Humidity;BMP_temperature;BMP_pressure;BME280_temperature;BME280_humidity;BME280_pressure;Samples;Min_cycle;Max_cycle;Signal;HPM_P1;HPM_P2
2022/04/27 00:01:31;;;;;;;87.28;40.95;;;;;;;6.90;100.00;99837.22;4996556;28;20046;-49
2022/04/27 00:03:56;;;;;;;86.47;38.97;;;;;;;6.85;100.00;99845.03;4996344;28;20395;-51
2022/04/27 00:06:22;;;;;;;88.38;39.92;;;;;;;6.81;100.00;99839.25;4990780;28;20054;-52
2022/04/27 00:08:47;;;;;;;82.55;40.63;;;;;;;6.86;100.00;99839.50;4992369;28;20030;-50
2022/04/27 00:11:13;;;;;;;86.57;41.42;;;;;;;6.89;100.00;99847.06;4998531;28;20030;-52
2022/04/27 00:13:38;;;;;;;97.82;43.05;;;;;;;6.86;100.00;99838.66;4990912;28;20029;-53
2022/04/27 00:16:04;;;;;;;98.60;42.20;;;;;;;6.92;100.00;99845.84;4994842;28;20042;-54
2022/04/27 00:18:29;;;;;;;96.50;42.20;;;;;;;6.89;100.00;99840.94;4992755;28;20022;-53
2022/04/27 00:20:54;;;;;;;101.47;44.00;;;;;;;6.93;100.00;99847.47;5004921;28;20049;-51
2022/04/27 00:23:21;;;;;;;93.07;43.60;;;;;;;6.91;100.00;99845.03;4994291;28;20461;-54
2022/04/27 00:25:46;;;;;;;94.20;43.72;;;;;;;6.91;100.00;99844.19;4997416;28;20048;-52
2022/04/27 00:28:12;;;;;;;86.93;41.97;;;;;;;6.91;100.00;99852.19;4990221;28;20470;-52
2022/04/27 00:30:37;;;;;;;85.30;42.35;;;;;;;6.87;100.00;99842.97;4998462;28;20176;-52
2022/04/27 00:33:03;;;;;;;84.88;41.53;;;;;;;6.83;100.00;99844.41;4990877;28;20038;-53
2022/04/27 00:35:28;;;;;;;94.07;40.80;;;;;;;6.82;100.00;99851.56;4989011;28;20050;-51
2022/04/27 00:37:53;;;;;;;91.72;42.40;;;;;;;6.82;100.00;99848.91;4991412;28;20018;-51
2022/04/27 00:40:19;;;;;;;90.20;42.95;;;;;;;6.86;100.00;99857.31;4996785;28;20038;-51
2022/04/27 00:42:44;;;;;;;98.63;42.47;;;;;;;6.87;100.00;99858.97;4993953;28;20026;-50
2022/04/27 00:45:10;;;;;;;91.50;43.30;;;;;;;6.78;100.00;99849.50;4999212;28;20503;-51
2022/04/27 00:47:35;;;;;;;83.85;39.45;;;;;;;6.82;100.00;99850.75;4995056;28;20078;-51
2022/04/27 00:50:04;;;;;;;88.65;40.85;;;;;;;6.80;100.00;99852.81;4992826;28;20034;-52
2022/04/27 00:52:30;;;;;;;91.78;42.00;;;;;;;6.72;100.00;99851.16;4989976;28;20037;-53
2022/04/27 00:54:56;;;;;;;84.40;41.22;;;;;;;6.67;100.00;99851.75;4988693;28;20473;-53
2022/04/27 00:57:23;;;;;;;89.35;42.55;;;;;;;6.62;100.00;99856.88;4992228;28;20054;-52
2022/04/27 00:59:48;;;;;;;95.80;41.83;;;;;;;6.58;100.00;99860.94;4995387;28;20025;-53
2022/04/27 01:02:14;;;;;;;93.68;41.95;;;;;;;6.50;100.00;99861.13;4997985;28;20443;-50
2022/04/27 01:04:39;;;;;;;91.32;40.65;;;;;;;6.50;100.00;99863.78;5001549;28;20030;-53
2022/04/27 01:07:05;;;;;;;92.28;43.95;;;;;;;6.45;100.00;99852.91;4989708;28;20051;-53
2022/04/27 01:09:31;;;;;;;100.05;45.20;;;;;;;6.42;100.00;99856.00;4991055;28;20030;-53
2022/04/27 01:11:57;;;;;;;103.60;46.70;;;;;;;6.36;100.00;99857.59;4996752;28;20041;-52
2022/04/27 01:14:22;;;;;;;116.35;49.30;;;;;;;6.46;100.00;99858.06;4994337;28;20110;-50
2022/04/27 01:16:56;;;;;;;107.40;45.30;;;;;;;6.47;100.00;99861.53;4989204;28;20042;-52
2022/04/27 01:19:23;;;;;;;113.55;49.03;;;;;;;6.53;100.00;99862.56;4994829;28;20034;-54
2022/04/27 01:21:49;;;;;;;110.13;48.65;;;;;;;6.59;100.00;99859.94;5003179;28;20454;-52
2022/04/27 01:24:17;;;;;;;113.72;48.38;;;;;;;6.59;100.00;99861.75;4996315;28;20026;-54
2022/04/27 01:26:42;;;;;;;108.53;47.58;;;;;;;6.53;100.00;99857.25;4976438;28;20045;-53
2022/04/27 01:29:08;;;;;;;127.93;50.58;;;;;;;6.60;100.00;99858.91;4992554;28;20053;-52
2022/04/27 01:31:33;;;;;;;126.75;49.47;;;;;;;6.64;100.00;99854.81;4988563;28;20050;-51
2022/04/27 01:33:59;;;;;;;119.97;49.85;;;;;;;6.66;100.00;99852.78;4994242;28;20042;-52
2022/04/27 01:36:24;;;;;;;124.10;49.88;;;;;;;6.69;100.00;99852.38;4994378;28;20051;-54
2022/04/27 01:38:49;;;;;;;136.18;51.08;;;;;;;6.61;100.00;99849.88;4992050;28;20080;-51
2022/04/27 01:41:15;;;;;;;128.57;52.20;;;;;;;6.66;100.00;99851.94;4990562;28;20393;-51
2022/04/27 01:43:40;;;;;;;133.05;53.33;;;;;;;6.68;100.00;99861.38;4992961;28;20026;-54
2022/04/27 01:46:06;;;;;;;119.03;51.17;;;;;;;6.67;100.00;99854.41;4988510;28;20143;-54
2022/04/27 01:48:32;;;;;;;120.22;49.15;;;;;;;6.69;100.00;99857.69;4996895;28;20449;-52
2022/04/27 01:50:57;;;;;;;121.93;52.13;;;;;;;6.66;100.00;99858.13;4994555;28;20030;-52
2022/04/27 01:56:07;;;;;;;121.60;51.30;;;;;;;6.54;100.00;99859.72;4988815;28;20104;-53
2022/04/27 01:58:32;;;;;;;119.30;50.83;;;;;;;6.51;100.00;99859.28;4972421;28;20030;-52
2022/04/27 02:00:58;;;;;;;123.13;50.75;;;;;;;6.45;100.00;99868.91;4988353;28;20039;-52
2022/04/27 02:03:23;;;;;;;121.43;48.05;;;;;;;6.41;100.00;99870.31;4992153;28;20030;-51
2022/04/27 02:05:49;;;;;;;112.18;47.47;;;;;;;6.32;100.00;99877.66;4998460;28;20062;-52
2022/04/27 02:08:15;;;;;;;117.32;49.38;;;;;;;6.35;100.00;99873.78;4993597;28;20037;-52
2022/04/27 02:10:40;;;;;;;117.28;50.38;;;;;;;6.31;100.00;99869.84;4999828;28;20037;-54
2022/04/27 02:13:07;;;;;;;115.50;49.22;;;;;;;6.26;100.00;99884.59;4995384;28;20511;-54
2022/04/27 02:15:32;;;;;;;102.78;47.35;;;;;;;6.16;100.00;99880.66;4988980;28;20045;-54
2022/04/27 02:17:58;;;;;;;107.32;41.33;;;;;;;6.15;100.00;99877.16;4991758;28;20022;-51
2022/04/27 02:20:24;;;;;;;97.50;44.75;;;;;;;6.09;100.00;99883.28;4996375;28;20165;-52
2022/04/27 02:22:50;;;;;;;118.50;46.03;;;;;;;6.01;100.00;99886.09;4988599;28;20022;-52
2022/04/27 02:25:16;;;;;;;106.50;43.78;;;;;;;6.02;100.00;99882.44;5002190;28;20066;-53
2022/04/27 02:27:43;;;;;;;96.75;43.30;;;;;;;5.97;100.00;99884.88;4992048;28;20174;-51
2022/04/27 02:30:09;;;;;;;104.18;43.13;;;;;;;5.95;100.00;99884.25;4988678;28;20034;-53
2022/04/27 02:32:34;;;;;;;87.28;37.80;;;;;;;5.96;100.00;99893.84;4987171;28;20046;-54
2022/04/27 02:35:03;;;;;;;87.30;39.58;;;;;;;5.94;100.00;99896.72;4995492;28;20365;-53
2022/04/27 02:37:30;;;;;;;85.20;39.33;;;;;;;5.84;100.00;99902.34;4992793;28;20047;-52
2022/04/27 02:39:56;;;;;;;82.68;39.10;;;;;;;5.82;100.00;99898.25;4995319;28;20345;-54
2022/04/27 02:42:22;;;;;;;83.20;38.33;;;;;;;5.78;100.00;99902.31;4989954;28;20046;-53
2022/04/27 02:44:47;;;;;;;84.45;39.33;;;;;;;5.75;100.00;99902.69;4988282;28;20038;-54
2022/04/27 02:47:13;;;;;;;77.82;34.72;;;;;;;5.78;100.00;99908.44;4992325;28;20046;-53
2022/04/27 02:52:22;;;;;;;66.97;35.05;;;;;;;5.67;100.00;99903.69;4995660;28;20038;-52
2022/04/27 02:54:47;;;;;;;73.13;37.17;;;;;;;5.62;100.00;99903.44;4997148;28;20034;-52
2022/04/27 02:57:13;;;;;;;72.40;36.03;;;;;;;5.67;100.00;99898.34;4999696;28;20113;-53
2022/04/27 02:59:41;;;;;;;70.75;34.47;;;;;;;5.68;100.00;99901.84;4995501;28;20031;-53
2022/04/27 03:02:06;;;;;;;72.22;35.33;;;;;;;5.53;100.00;99904.59;4998354;28;20062;-53
2022/04/27 03:04:32;;;;;;;68.88;33.33;;;;;;;5.50;100.00;99904.97;4996679;28;20389;-54
2022/04/27 03:06:57;;;;;;;63.70;32.80;;;;;;;5.50;100.00;99904.97;4997933;28;20038;-53
2022/04/27 03:09:23;;;;;;;66.03;33.58;;;;;;;5.41;100.00;99907.75;5003363;28;20366;-53
2022/04/27 03:11:49;;;;;;;64.78;34.33;;;;;;;5.41;100.00;99907.75;4999163;28;20109;-53
2022/04/27 03:14:14;;;;;;;72.50;35.60;;;;;;;5.34;100.00;99914.88;4995285;28;20377;-53
2022/04/27 03:16:39;;;;;;;69.90;34.25;;;;;;;5.30;100.00;99916.25;4990774;28;20042;-51
2022/04/27 03:19:05;;;;;;;73.18;35.40;;;;;;;5.30;100.00;99918.91;4991486;28;20034;-53
2022/04/27 03:21:32;;;;;;;67.50;33.75;;;;;;;5.27;100.00;99910.53;4995071;28;20061;-53
2022/04/27 03:23:58;;;;;;;68.00;33.60;;;;;;;5.27;100.00;99910.53;4992886;28;20415;-51
2022/04/27 03:26:23;;;;;;;65.88;33.05;;;;;;;5.21;100.00;99905.94;4998755;28;20484;-53
2022/04/27 03:28:49;;;;;;;70.93;34.72;;;;;;;5.16;100.00;99915.31;4999455;28;20030;-52
2022/04/27 03:31:14;;;;;;;76.43;34.33;;;;;;;5.18;100.00;99917.78;4994108;28;20058;-53
2022/04/27 03:33:39;;;;;;;66.95;33.85;;;;;;;5.12;100.00;99918.56;5001135;28;20034;-54
2022/04/27 03:36:08;;;;;;;73.40;34.83;;;;;;;5.16;100.00;99925.13;4995301;28;20362;-51
2022/04/27 03:38:33;;;;;;;68.38;33.70;;;;;;;5.12;100.00;99919.38;5000584;28;20488;-52
2022/04/27 03:40:59;;;;;;;75.50;35.25;;;;;;;5.11;100.00;99919.56;4993850;28;20050;-54
2022/04/27 03:43:24;;;;;;;68.85;33.33;;;;;;;5.10;100.00;99926.72;4999163;28;20026;-54
2022/04/27 03:45:50;;;;;;;83.63;37.75;;;;;;;5.09;100.00;99929.53;4993028;28;20099;-52
2022/04/27 03:48:15;;;;;;;66.88;34.33;;;;;;;5.12;100.00;99934.50;4999554;28;20093;-56
2022/04/27 03:50:41;;;;;;;70.55;35.38;;;;;;;5.08;100.00;99930.56;4995028;28;20493;-50
2022/04/27 03:53:06;;;;;;;72.97;34.58;;;;;;;5.07;100.00;99932.41;4999483;28;20037;-54
2022/04/27 03:55:33;;;;;;;73.45;37.15;;;;;;;5.05;100.00;99936.28;4993959;28;20046;-53
2022/04/27 03:58:02;;;;;;;72.75;35.65;;;;;;;5.10;100.00;99936.53;4992209;28;20069;-51
2022/04/27 04:00:28;;;;;;;75.22;35.63;;;;;;;5.00;100.00;99943.97;4991106;28;20046;-53
2022/04/27 04:02:53;;;;;;;79.00;34.83;;;;;;;4.98;100.00;99939.66;4995661;28;20049;-52
2022/04/27 04:05:19;;;;;;;70.75;33.10;;;;;;;4.92;100.00;99943.09;4996572;28;20034;-54
2022/04/27 04:07:44;;;;;;;72.15;35.60;;;;;;;4.88;100.00;99944.47;4992641;28;20026;-52
2022/04/27 04:10:10;;;;;;;79.78;35.05;;;;;;;4.83;100.00;99941.56;4996840;28;20038;-50
2022/04/27 04:12:35;;;;;;;66.97;33.38;;;;;;;4.83;100.00;99946.88;4991135;28;20026;-53
2022/04/27 04:15:02;;;;;;;74.80;34.38;;;;;;;4.85;100.00;99950.16;4992408;28;20041;-53
2022/04/27 04:17:27;;;;;;;73.15;36.15;;;;;;;4.83;100.00;99952.16;4990106;28;20030;-51
2022/04/27 04:19:52;;;;;;;68.85;33.55;;;;;;;4.85;100.00;99947.50;5004325;28;20044;-54
2022/04/27 04:22:18;;;;;;;84.88;36.05;;;;;;;4.86;100.00;99950.97;4993864;28;20050;-52
2022/04/27 04:28:29;;;;;;;66.20;33.10;;;;;;;4.86;100.00;99954.44;4992634;28;20400;-54
2022/04/27 04:30:13;;;;;;;71.97;34.42;;;;;;;4.91;100.00;99960.03;4990097;28;20060;-51
2022/04/27 04:32:39;;;;;;;74.63;34.25;;;;;;;4.92;100.00;99961.69;4990383;28;20097;-53
2022/04/27 04:35:05;;;;;;;82.50;37.22;;;;;;;4.96;100.00;99962.94;4990307;28;20067;-52
2022/04/27 04:37:33;;;;;;;97.93;38.58;;;;;;;4.98;100.00;99965.41;4990684;28;20380;-53
2022/04/27 04:39:59;;;;;;;108.50;43.00;;;;;;;4.98;100.00;99968.06;4993566;28;20612;-55
2022/04/27 04:42:24;;;;;;;118.50;42.85;;;;;;;4.97;100.00;99972.56;4997311;28;20042;-53
2022/04/27 04:44:50;;;;;;;119.40;45.25;;;;;;;4.94;100.00;99970.28;4998894;28;20422;-52
2022/04/27 04:47:15;;;;;;;112.93;44.92;;;;;;;4.98;100.00;99982.16;4973565;28;20050;-51
2022/04/27 04:49:41;;;;;;;85.60;40.42;;;;;;;5.00;100.00;99981.19;4990775;28;20030;-51
2022/04/27 04:52:07;;;;;;;102.63;40.25;;;;;;;5.02;100.00;99984.44;4989929;28;20050;-54
2022/04/27 04:54:34;;;;;;;93.45;41.13;;;;;;;5.01;100.00;99991.59;4992433;28;20049;-50
2022/04/27 04:56:59;;;;;;;96.00;39.15;;;;;;;4.99;100.00;99988.31;4995619;28;20054;-51
2022/04/27 04:59:24;;;;;;;71.15;35.63;;;;;;;4.97;100.00;99993.81;4996794;28;20484;-54
2022/04/27 05:01:50;;;;;;;88.18;38.60;;;;;;;4.96;100.00;99997.47;4989557;28;20034;-54
2022/04/27 05:04:15;;;;;;;80.22;36.97;;;;;;;4.91;100.00;100002.53;4994830;28;20033;-51
2022/04/27 05:06:41;;;;;;;85.47;37.63;;;;;;;4.96;100.00;100008.09;4989954;28;20416;-54
2022/04/27 05:09:06;;;;;;;73.45;36.05;;;;;;;5.06;100.00;100001.66;5000643;28;20037;-54
2022/04/27 05:11:32;;;;;;;83.22;35.92;;;;;;;5.14;100.00;100009.53;4995783;28;20050;-53
2022/04/27 05:13:57;;;;;;;84.82;37.47;;;;;;;5.26;100.00;100012.50;4990192;28;20022;-53
2022/04/27 05:16:25;;;;;;;74.95;36.58;;;;;;;5.38;100.00;100011.81;4993228;28;20042;-55
2022/04/27 05:18:50;;;;;;;79.18;36.60;;;;;;;5.53;100.00;100009.09;4994118;28;20030;-54
2022/04/27 05:21:16;;;;;;;72.50;35.38;;;;;;;5.55;100.00;100019.56;4997246;28;20065;-52
2022/04/27 05:23:42;;;;;;;69.00;32.58;;;;;;;5.57;99.94;100022.88;4996009;28;20037;-53
2022/04/27 05:26:08;;;;;;;66.57;33.83;;;;;;;5.61;99.60;100029.44;4990787;28;20053;-54
2022/04/27 05:31:54;;;;;;;76.47;34.13;;;;;;;5.67;100.00;100034.00;4987219;28;20022;-52
2022/04/27 05:34:02;;;;;;;69.03;33.50;;;;;;;5.69;98.61;100039.97;4994899;28;20049;-53
2022/04/27 05:36:28;;;;;;;68.75;34.25;;;;;;;5.71;98.49;100053.88;4992199;28;20046;-52
2022/04/27 05:38:53;;;;;;;62.20;31.52;;;;;;;5.82;97.77;100053.38;4994090;28;20038;-52
2022/04/27 05:41:19;;;;;;;65.03;34.70;;;;;;;5.96;97.41;100053.50;4994849;28;20452;-54
2022/04/27 05:43:44;;;;;;;61.28;31.88;;;;;;;5.88;96.60;100061.59;4992731;28;20068;-53
2022/04/27 05:46:10;;;;;;;66.95;32.97;;;;;;;5.80;96.62;100066.03;4988671;28;20053;-52
2022/04/27 05:48:35;;;;;;;71.07;34.55;;;;;;;5.92;96.84;100068.19;4989528;28;20049;-51
2022/04/27 05:51:02;;;;;;;54.47;29.48;;;;;;;5.73;96.15;100067.00;4988920;28;20069;-50
2022/04/27 05:53:28;;;;;;;64.30;34.53;;;;;;;5.78;96.73;100062.72;4989682;28;20034;-53
2022/04/27 05:55:53;;;;;;;70.50;33.70;;;;;;;5.88;96.77;100065.06;5000301;28;20535;-53
2022/04/27 05:58:19;;;;;;;71.95;33.20;;;;;;;5.87;96.00;100073.25;4994205;28;20053;-53
2022/04/27 06:00:46;;;;;;;61.95;32.53;;;;;;;5.76;96.42;100070.06;4997743;28;20465;-54
2022/04/27 06:03:11;;;;;;;69.72;34.63;;;;;;;5.67;96.69;100071.25;4990910;28;20066;-53
2022/04/27 06:05:37;;;;;;;62.45;32.00;;;;;;;5.84;96.08;100077.94;4989776;28;20057;-51
2022/04/27 06:08:02;;;;;;;56.40;30.30;;;;;;;5.96;95.39;100080.94;4988749;28;20038;-51
2022/04/27 06:10:28;;;;;;;61.50;31.92;;;;;;;6.07;95.20;100084.94;4990287;28;20053;-52
2022/04/27 06:12:53;;;;;;;68.78;32.60;;;;;;;6.23;95.62;100086.47;4992590;28;20030;-51
2022/04/27 06:15:18;;;;;;;67.57;32.15;;;;;;;6.28;95.28;100089.38;4986267;28;20038;-51
2022/04/27 06:17:44;;;;;;;66.05;33.80;;;;;;;6.50;95.27;100090.16;4995479;28;20388;-52
2022/04/27 06:20:10;;;;;;;58.92;30.58;;;;;;;6.33;94.70;100097.63;4999874;28;20392;-53
2022/04/27 06:22:35;;;;;;;62.83;30.58;;;;;;;6.30;94.69;100092.69;4993049;28;20053;-53
2022/04/27 06:25:02;;;;;;;71.72;32.85;;;;;;;6.15;94.71;100086.63;4993096;28;20030;-53
2022/04/27 06:27:27;;;;;;;72.95;31.92;;;;;;;6.24;95.88;100096.94;4990913;28;20503;-54
2022/04/27 06:29:53;;;;;;;67.40;31.25;;;;;;;6.47;95.31;100104.69;4993273;28;20026;-51
2022/04/27 06:32:18;;;;;;;67.30;33.60;;;;;;;6.62;94.63;100101.94;4992079;28;20050;-51
2022/04/27 06:34:44;;;;;;;65.10;33.78;;;;;;;6.64;95.00;100109.69;4987651;28;20048;-50
2022/04/27 06:37:09;;;;;;;69.07;32.42;;;;;;;6.68;94.33;100108.31;4988664;28;20043;-51
2022/04/27 06:39:35;;;;;;;79.00;33.05;;;;;;;6.57;95.38;100107.00;4992098;28;20030;-54
2022/04/27 06:42:01;;;;;;;59.55;31.40;;;;;;;6.65;96.07;100111.38;4991622;28;20078;-55
2022/04/27 06:44:26;;;;;;;64.53;31.50;;;;;;;6.74;95.04;100112.03;4993603;28;20080;-50
2022/04/27 06:46:51;;;;;;;66.43;33.00;;;;;;;6.81;95.56;100116.38;4989022;28;20046;-52
2022/04/27 06:49:17;;;;;;;69.90;33.80;;;;;;;6.64;95.49;100115.88;4988911;28;20038;-53
2022/04/27 06:51:42;;;;;;;65.10;32.20;;;;;;;6.53;95.17;100119.06;4991993;28;20046;-53
2022/04/27 06:54:07;;;;;;;75.05;34.70;;;;;;;6.52;95.28;100117.44;4998788;28;20041;-50
2022/04/27 06:56:33;;;;;;;86.90;35.50;;;;;;;6.65;95.78;100125.50;4994035;28;20436;-50
2022/04/27 06:58:58;;;;;;;76.53;36.55;;;;;;;6.94;95.83;100126.31;4993009;28;20035;-54
2022/04/27 07:01:24;;;;;;;72.13;34.80;;;;;;;6.95;94.81;100124.47;4991531;28;20142;-53
2022/04/27 07:03:55;;;;;;;72.50;34.17;;;;;;;6.80;94.44;100122.72;4987335;28;20037;-53
2022/04/27 07:06:21;;;;;;;;;;;;;;;6.84;94.13;100132.00;4993910;28;20049;-52
2022/04/27 07:08:47;;;;;;;79.18;36.97;;;;;;;6.80;95.38;100135.22;4996817;28;20458;-51
2022/04/27 07:11:12;;;;;;;82.25;34.60;;;;;;;7.17;95.24;100138.53;4993654;28;20042;-54
2022/04/27 07:13:38;;;;;;;72.80;34.63;;;;;;;7.29;92.85;100139.59;4988398;28;20029;-54
2022/04/27 07:16:05;;;;;;;78.43;35.33;;;;;;;7.27;93.24;100149.63;4992509;28;20413;-54
2022/04/27 07:18:30;;;;;;;77.35;35.58;;;;;;;7.30;93.92;100144.72;4992628;28;20034;-51
2022/04/27 07:20:56;;;;;;;78.43;36.67;;;;;;;7.50;94.31;100150.13;4991178;28;20448;-52
2022/04/27 07:23:21;;;;;;;84.68;38.25;;;;;;;7.62;92.55;100146.91;4988811;28;20443;-52
2022/04/27 07:25:47;;;;;;;76.05;35.90;;;;;;;7.20;92.47;100143.44;4992081;28;20474;-51
2022/04/27 07:28:12;;;;;;;94.40;39.42;;;;;;;7.23;93.64;100156.38;4988430;28;20034;-54
2022/04/27 07:30:38;;;;;;;81.22;36.35;;;;;;;7.22;93.24;100152.91;4995525;28;20093;-53
2022/04/27 07:33:04;;;;;;;78.43;37.42;;;;;;;7.42;93.57;100144.97;4996359;28;20049;-52
2022/04/27 07:35:29;;;;;;;90.00;38.92;;;;;;;7.76;92.35;100156.56;4994223;28;20625;-54
2022/04/27 07:37:55;;;;;;;91.18;39.40;;;;;;;7.75;93.08;100155.75;4993233;28;20026;-53
2022/04/27 07:40:20;;;;;;;77.22;35.72;;;;;;;7.89;92.28;100161.97;5001729;28;20053;-52
2022/04/27 07:42:47;;;;;;;71.97;38.00;;;;;;;7.78;92.49;100162.53;4995412;28;20030;-52
2022/04/27 07:45:13;;;;;;;81.15;37.80;;;;;;;7.83;93.31;100162.75;4999603;28;20034;-53
2022/04/27 07:47:45;;;;;;;80.40;39.60;;;;;;;7.69;92.32;100164.56;4996807;28;20026;-56
2022/04/27 07:50:12;;;;;;;80.38;40.10;;;;;;;7.77;94.10;100163.56;4989891;28;20269;-53
2022/04/27 07:52:37;;;;;;;79.80;38.47;;;;;;;7.88;94.32;100170.97;4990833;28;20540;-52
2022/04/27 07:55:04;;;;;;;86.30;38.88;;;;;;;8.09;93.67;100167.34;4991232;28;20504;-52
2022/04/27 07:57:32;;;;;;;92.38;40.58;;;;;;;8.14;93.18;100172.06;5001066;28;20045;-53
2022/04/27 07:59:58;;;;;;;72.32;39.47;;;;;;;8.25;90.97;100171.44;5004048;28;20034;-51
2022/04/27 08:02:24;;;;;;;76.88;39.05;;;;;;;8.31;91.37;100181.34;4995360;28;20471;-53
2022/04/27 08:04:49;;;;;;;83.20;42.22;;;;;;;8.07;91.92;100195.28;4993868;28;20035;-53
2022/04/27 08:07:14;;;;;;;87.20;41.40;;;;;;;8.06;92.41;100193.59;4992984;28;20271;-54
2022/04/27 08:09:40;;;;;;;75.78;37.00;;;;;;;8.06;91.78;100193.59;4999072;28;20025;-51
2022/04/27 08:12:06;;;;;;;80.38;40.75;;;;;;;8.12;92.98;100200.81;4991794;28;20042;-53
2022/04/27 08:14:31;;;;;;;79.18;39.85;;;;;;;7.98;92.14;100198.09;4992417;28;20025;-51
2022/04/27 08:16:59;;;;;;;81.72;38.63;;;;;;;8.52;91.84;100196.38;4995343;28;20514;-53
2022/04/27 08:19:24;;;;;;;84.47;39.53;;;;;;;8.72;91.47;100203.56;4995129;28;20025;-53
2022/04/27 08:21:50;;;;;;;81.20;40.20;;;;;;;9.08;88.25;100197.75;4990760;28;20044;-54
2022/04/27 08:24:18;;;;;;;70.47;37.15;;;;;;;9.17;87.61;100206.38;5004960;28;20026;-54
2022/04/27 08:26:47;;;;;;;69.35;37.58;;;;;;;9.01;88.93;100200.47;4998035;28;20042;-52
2022/04/27 08:29:12;;;;;;;79.13;37.75;;;;;;;8.91;88.76;100208.09;4996200;28;20112;-55
2022/04/27 08:31:38;;;;;;;78.75;39.58;;;;;;;8.96;88.61;100207.44;4995618;28;20058;-53
2022/04/27 08:34:03;;;;;;;75.38;37.17;;;;;;;9.17;87.16;100215.22;4995149;28;20026;-51
2022/04/27 08:36:29;;;;;;;71.85;35.67;;;;;;;9.37;87.12;100206.34;4989892;28;20563;-53
2022/04/27 08:38:54;;;;;;;76.22;37.53;;;;;;;9.44;86.39;100212.50;4996366;28;20026;-54
2022/04/27 08:41:19;;;;;;;76.55;40.42;;;;;;;9.41;85.17;100207.53;4992385;28;20516;-52
2022/04/27 08:43:45;;;;;;;73.63;38.00;;;;;;;9.72;84.99;100209.50;4997810;28;20037;-53
2022/04/27 08:46:10;;;;;;;73.72;37.47;;;;;;;9.92;85.07;100215.56;4994494;28;20038;-53
2022/04/27 08:48:36;;;;;;;70.50;35.80;;;;;;;10.02;82.97;100220.47;4996872;28;20201;-52
2022/04/27 08:51:03;;;;;;;74.30;36.50;;;;;;;9.92;81.35;100226.28;4993561;28;20038;-53
2022/04/27 08:53:28;;;;;;;84.95;43.78;;;;;;;9.97;82.87;100217.59;4990817;28;20037;-55
2022/04/27 08:55:55;;;;;;;75.38;39.55;;;;;;;9.75;84.22;100224.31;4989063;28;20042;-53
2022/04/27 08:58:22;;;;;;;73.55;37.30;;;;;;;10.13;81.40;100221.63;5001465;28;20112;-53
2022/04/27 09:00:48;;;;;;;65.30;34.45;;;;;;;10.30;83.16;100220.13;4997390;28;20125;-53
2022/04/27 09:03:33;;;;;;;62.92;34.78;;;;;;;10.51;82.43;100227.00;4993594;28;20037;-51
2022/04/27 09:06:03;;;;;;;65.90;35.75;;;;;;;10.08;79.77;100221.47;4988744;28;20516;-52
2022/04/27 09:08:44;;;;;;;65.25;35.78;;;;;;;10.33;79.59;100221.53;4990308;28;20042;-52
2022/04/27 09:11:25;;;;;;;71.60;39.15;;;;;;;10.67;80.32;100219.44;4992762;28;20568;-52
2022/04/27 09:13:55;;;;;;;67.82;38.70;;;;;;;10.95;79.61;100222.50;4990081;28;20046;-53
2022/04/27 09:20:46;;;;;;;63.95;35.90;;;;;;;10.99;77.11;100217.53;4996007;28;20489;-56
2022/04/27 09:22:04;;;;;;;67.05;37.85;;;;;;;11.23;76.94;100223.88;4989511;28;20678;-55
2022/04/27 09:24:51;;;;;;;78.82;41.83;;;;;;;11.36;76.84;100229.13;4995910;28;20037;-54
2022/04/27 09:27:24;;;;;;;69.80;35.25;;;;;;;11.69;74.11;100222.53;4996376;28;20389;-53
2022/04/27 09:29:59;;;;;;;72.90;34.30;;;;;;;11.96;72.21;100227.63;4995872;28;20036;-54
2022/04/27 09:32:24;;;;;;;76.88;41.72;;;;;;;11.81;75.91;100225.28;4992669;28;20061;-53
2022/04/27 09:34:50;;;;;;;72.63;38.13;;;;;;;13.32;70.75;100227.72;4988597;28;20082;-54
2022/04/27 09:37:20;;;;;;;61.17;34.38;;;;;;;14.46;68.10;100222.41;4995065;28;20038;-54
2022/04/27 09:39:47;;;;;;;59.85;33.92;;;;;;;15.29;62.36;100235.31;4987820;28;20468;-54
2022/04/27 09:42:14;;;;;;;64.57;33.70;;;;;;;14.92;61.62;100229.63;4991217;28;20277;-54
2022/04/27 09:44:39;;;;;;;54.47;33.22;;;;;;;12.72;68.13;100234.94;4995535;28;20050;-53
2022/04/27 09:47:06;;;;;;;66.50;41.58;;;;;;;13.44;68.24;100231.22;4993090;28;20519;-53
2022/04/27 09:49:32;;;;;;;51.47;32.50;;;;;;;13.26;67.81;100231.34;4993038;28;20046;-52
2022/04/27 09:51:59;;;;;;;60.95;36.72;;;;;;;14.14;67.46;100235.59;4986776;28;20042;-53
2022/04/27 09:54:28;;;;;;;54.45;32.92;;;;;;;15.54;62.64;100222.13;4988807;28;20038;-54
2022/04/27 09:56:57;;;;;;;71.07;38.70;;;;;;;15.15;61.83;100218.66;4988519;28;20602;-54
2022/04/27 09:59:27;;;;;;;58.20;34.00;;;;;;;15.56;61.74;100224.59;4987095;28;20026;-55
2022/04/27 10:01:54;;;;;;;53.42;31.20;;;;;;;16.54;58.00;100227.28;4994759;28;20594;-54
2022/04/27 10:04:23;;;;;;;69.72;43.85;;;;;;;15.11;62.84;100222.91;4988484;28;20548;-53
2022/04/27 10:06:48;;;;;;;51.85;32.35;;;;;;;14.02;64.34;100219.44;4995306;28;20034;-55
2022/04/27 10:09:13;;;;;;;53.20;33.65;;;;;;;13.98;66.99;100217.50;4989350;28;20034;-52
2022/04/27 10:11:39;;;;;;;46.28;30.60;;;;;;;15.52;62.75;100223.44;4990620;28;20041;-53
2022/04/27 10:14:04;;;;;;;47.50;31.90;;;;;;;15.30;61.95;100224.28;4975575;28;20033;-51
2022/04/27 10:16:30;;;;;;;64.72;38.78;;;;;;;15.46;61.65;100219.06;4987169;28;20038;-54
2022/04/27 10:18:55;;;;;;;46.75;30.10;;;;;;;15.63;60.42;100225.22;4991211;28;20389;-54
2022/04/27 10:21:57;;;;;;;45.63;30.40;;;;;;;16.67;59.07;100217.09;4995559;28;20038;-54
2022/04/27 10:24:37;;;;;;;52.03;31.10;;;;;;;16.59;59.67;100221.09;4994162;28;20029;-52
2022/04/27 10:27:22;;;;;;;44.83;28.17;;;;;;;16.67;57.62;100206.28;4987950;28;20042;-50
2022/04/27 10:29:51;;;;;;;44.65;28.50;;;;;;;16.91;59.99;100212.97;4994260;28;20052;-52
2022/04/27 10:32:47;;;;;;;46.30;28.65;;;;;;;16.27;59.41;100218.38;4992656;28;20065;-50
2022/04/27 10:35:13;;;;;;;41.08;27.27;;;;;;;14.72;62.10;100212.06;4992375;28;20443;-53
2022/04/27 10:38:02;;;;;;;41.78;28.25;;;;;;;13.66;66.59;100200.97;4993586;28;20042;-52
2022/04/27 10:40:34;;;;;;;46.33;30.80;;;;;;;14.27;64.76;100196.72;4994671;28;20054;-53
2022/04/27 10:43:03;;;;;;;45.92;28.85;;;;;;;15.08;62.66;100193.72;4997982;28;20022;-50
2022/04/27 10:45:28;;;;;;;47.97;28.98;;;;;;;14.70;65.49;100195.28;4989199;28;20054;-50
2022/04/27 10:47:54;;;;;;;48.58;28.55;;;;;;;14.90;64.68;100197.47;4996626;28;20511;-50
2022/04/27 10:50:21;;;;;;;42.80;26.45;;;;;;;15.49;61.53;100197.75;4992042;28;20479;-52
2022/04/27 10:52:51;;;;;;;42.83;25.58;;;;;;;16.50;58.36;100196.41;4988776;28;20030;-55
2022/04/27 10:55:43;;;;;;;40.85;27.98;;;;;;;15.93;58.56;100196.97;4992485;28;20085;-53
2022/04/27 10:58:12;;;;;;;41.13;27.10;;;;;;;16.36;58.58;100189.78;4993331;28;20369;-51
2022/04/27 11:01:18;;;;;;;43.03;27.20;;;;;;;16.43;58.29;100193.09;4987179;28;20096;-53
2022/04/27 11:03:43;;;;;;;38.75;25.85;;;;;;;15.83;60.41;100194.16;4998570;28;20124;-50
2022/04/27 11:06:10;;;;;;;42.88;26.15;;;;;;;16.40;58.96;100188.22;4998875;28;20042;-54
2022/04/27 11:08:36;;;;;;;38.97;25.52;;;;;;;15.83;60.23;100199.56;4987451;28;20493;-55
2022/04/27 11:11:06;;;;;;;41.90;28.60;;;;;;;15.09;62.30;100193.44;4987153;28;20056;-51
2022/04/27 11:13:32;;;;;;;41.92;27.65;;;;;;;15.94;61.35;100193.16;4997406;28;20033;-54
2022/04/27 11:16:11;;;;;;;41.47;28.17;;;;;;;15.41;59.10;100186.59;5001519;28;20042;-50
2022/04/27 11:19:00;;;;;;;41.22;26.60;;;;;;;15.95;61.84;100186.72;4990713;28;20387;-50
2022/04/27 11:21:28;;;;;;;39.83;25.58;;;;;;;16.64;59.46;100180.53;5002441;28;20042;-54
2022/04/27 11:23:54;;;;;;;36.40;25.63;;;;;;;15.82;59.90;100179.78;4991838;28;20098;-54
2022/04/27 11:26:19;;;;;;;34.58;23.50;;;;;;;15.67;59.39;100176.88;4995306;28;20049;-52
2022/04/27 11:28:45;;;;;;;46.33;24.77;;;;;;;14.66;60.53;100183.38;4997359;28;20037;-54